Nearby METAR Reports

This page may be slow to load as it queries the National Weather Service for data.

KBIS - Bismarck, North Dakota, USA
Distance from station: S 10mi, 15km
Updated: Tue, 25-Sep-2018 10:52pm CDT
Clear
Clear
 Wind from W
Wind: W 8 mph , 13 km/h
Temperature: 45°F , 7°C
Wind Chill: 41°F , 5°C
Dew Point: 39°F , 4°C
Humidity: 81%
Barometer: 30.12 inHg , 1020 hPa
Clouds: Clear
Visibility: 10 miles , 16 km
2018/09/26 03:52 KBIS 260352Z 28007KT 10SM CLR 07/04 A3012 RMK AO2 SLP209 T00670039
KDIK - Dickinson, North Dakota, USA
Distance from station: W 95mi, 154km
Updated: Tue, 25-Sep-2018 11:56pm CDT
Partly cloudy
Partly cloudy
 Wind from W
Wind: W 7 mph , 11 km/h
Temperature: 34°F , 1°C
Wind Chill: 28°F , -2°C
Dew Point: 30°F , -1°C
Humidity: 87%
Barometer: 30.14 inHg , 1020.7 hPa
Clouds: Partly cloudy
Visibility: 10 miles , 16 km
Cloud details: Partly cloudy 7000 ft
2018/09/26 04:56 KDIK 260456Z AUTO 26006KT 10SM SCT070 01/M01 A3014 RMK AO2 SLP222 T00111006
 
KISN - Williston, North Dakota, USA
Distance from station: NNW 2mi, 2km
Updated: Tue, 25-Sep-2018 11:52pm CDT
Clear
Clear
 Wind from SW
Wind: SW 5 mph , 7 km/h
Temperature: 36°F , 2°C
Wind Chill: 32°F , 0°C
Dew Point: 32°F , 0°C
Humidity: 87%
Barometer: 30.12 inHg , 1020 hPa
Clouds: Clear
Visibility: 10 miles , 16 km
2018/09/26 04:52 KISN 260452Z AUTO 22004KT 10SM CLR 02/00 A3012 RMK AO2 SLP217 T00170000
KFAR - Fargo, North Dakota, USA
Distance from station: NNW 4mi, 7km
Updated: Tue, 25-Sep-2018 11:53pm CDT
Clear
Clear
 Wind from WSW
Wind: WSW 7 mph , 11 km/h
Temperature: 39°F , 4°C
Wind Chill: 34°F , 1°C
Dew Point: 36°F , 2°C
Humidity: 87%
Barometer: 30.01 inHg , 1016.3 hPa
Clouds: Clear
Visibility: 10 miles , 16 km
2018/09/26 04:53 KFAR 260453Z 25006KT 10SM CLR 04/02 A3001 RMK AO2 SLP169 T00390022
 
KGFK - Grand Forks, North Dakota, USA
Distance from station: NNW 76mi, 123km
Updated: Tue, 25-Sep-2018 11:53pm CDT
Mostly cloudy
Mostly cloudy
 Wind from W
Wind: W 9 mph , 15 km/h
Temperature: 46°F , 8°C
Wind Chill: 41°F , 5°C
Dew Point: 43°F , 6°C
Humidity: 87%
Barometer: 29.99 inHg , 1015.6 hPa
Clouds: Mostly cloudy
Visibility: 10 miles , 16 km
Cloud details: Mostly cloudy 6500 ft
2018/09/26 04:53 KGFK 260453Z AUTO 27008KT 10SM BKN065 08/06 A2999 RMK AO2 SLP160 T00830061
KMOT - Minot, North Dakota, USA
Distance from station: E 109mi, 175km
Updated: Tue, 25-Sep-2018 11:54pm CDT
Clear
Clear
 Wind from WSW
Wind: WSW 7 mph , 11 km/h
Temperature: 39°F , 4°C
Wind Chill: 34°F , 1°C
Dew Point: 36°F , 2°C
Humidity: 87%
Barometer: 30.08 inHg , 1018.6 hPa
Clouds: Clear
Visibility: 10 miles , 16 km
2018/09/26 04:54 KMOT 260454Z AUTO 24006KT 10SM CLR 04/02 A3008 RMK AO2 SLP198 T00440017